createdAt,value
2024-02-27T00:02:30.689Z,10.85
2024-02-27T00:05:34.562Z,12.63
2024-02-27T00:08:36.706Z,13.32
2024-02-27T00:11:40.141Z,10.65
2024-02-27T00:14:42.209Z,11.48
2024-02-27T00:17:48.584Z,14.48
2024-02-27T00:20:50.701Z,15.70
2024-02-27T00:23:53.820Z,13.27
2024-02-27T00:26:56.352Z,13.13
2024-02-27T00:29:58.959Z,12.27
2024-02-27T00:33:01.202Z,14.52
2024-02-27T00:36:06.317Z,12.98
2024-02-27T00:39:08.380Z,14.02
2024-02-27T00:42:10.468Z,14.18
2024-02-27T00:45:12.597Z,17.70
2024-02-27T00:48:14.840Z,14.30
2024-02-27T00:51:17.130Z,13.38
2024-02-27T00:54:20.089Z,14.60
2024-02-27T00:57:24.457Z,16.25
2024-02-27T01:00:26.619Z,15.25
2024-02-27T01:03:28.766Z,18.90
2024-02-27T01:06:31.347Z,15.45
2024-02-27T01:09:37.386Z,13.60
2024-02-27T01:12:39.685Z,13.50
2024-02-27T01:15:43.693Z,15.40
2024-02-27T01:18:45.806Z,15.20
2024-02-27T01:21:47.896Z,18.92
2024-02-27T01:24:53.789Z,18.08
2024-02-27T01:27:56.777Z,21.70
2024-02-27T01:30:58.719Z,20.42
2024-02-27T01:34:01.277Z,22.27
2024-02-27T01:37:03.466Z,27.08
2024-02-27T01:40:07.006Z,17.50
2024-02-27T01:43:30.194Z,21.02
2024-02-27T01:46:32.698Z,18.83
2024-02-27T01:49:35.082Z,17.00
2024-02-27T01:52:37.577Z,16.42
2024-02-27T01:55:40.946Z,19.13
2024-02-27T01:58:43.953Z,16.67
2024-02-27T02:01:46.024Z,14.48
2024-02-27T02:04:50.178Z,19.35
2024-02-27T02:07:52.450Z,17.73
2024-02-27T02:10:55.566Z,15.00
2024-02-27T02:13:57.994Z,18.02
2024-02-27T02:17:00.457Z,14.52
2024-02-27T02:20:07.250Z,16.67
2024-02-27T02:23:09.499Z,19.75
2024-02-27T02:26:11.698Z,19.75
2024-02-27T02:29:14.111Z,16.35
2024-02-27T02:32:16.062Z,18.02
2024-02-27T02:35:18.634Z,17.58
2024-02-27T02:38:21.239Z,17.73
2024-02-27T02:41:23.844Z,16.33
2024-02-27T02:44:26.131Z,16.92
2024-02-27T02:47:29.009Z,15.25
2024-02-27T02:50:31.639Z,13.95
2024-02-27T02:53:33.874Z,15.75
2024-02-27T02:56:43.320Z,14.95
2024-02-27T02:59:45.831Z,10.82
2024-02-27T03:02:48.091Z,12.55
2024-02-27T03:05:50.836Z,10.82
2024-02-27T03:08:53.449Z,14.40
2024-02-27T03:11:56.996Z,12.40
2024-02-27T03:14:59.182Z,11.23
2024-02-27T03:18:01.607Z,14.45
2024-02-27T03:21:04.401Z,14.18
2024-02-27T03:24:07.245Z,12.00
2024-02-27T03:27:10.145Z,14.80
2024-02-27T03:30:15.161Z,18.50
2024-02-27T03:33:18.778Z,12.80
2024-02-27T03:36:22.946Z,14.45
2024-02-27T03:39:25.966Z,13.60
2024-02-27T03:42:28.092Z,16.85
2024-02-27T03:45:31.492Z,16.08
2024-02-27T03:48:34.326Z,12.75
2024-02-27T03:51:37.812Z,13.00
2024-02-27T03:54:40.213Z,12.68
2024-02-27T03:57:42.422Z,17.98
2024-02-27T04:00:46.116Z,15.25
2024-02-27T04:03:49.499Z,13.50
2024-02-27T04:06:51.561Z,15.02
2024-02-27T04:09:53.705Z,14.52
2024-02-27T04:12:55.748Z,14.52
2024-02-27T04:16:00.264Z,12.73
2024-02-27T04:19:02.778Z,13.63
2024-02-27T04:22:05.559Z,11.85
2024-02-27T04:25:08.476Z,13.90
2024-02-27T04:28:11.839Z,13.23
2024-02-27T04:31:13.860Z,14.88
2024-02-27T04:34:17.482Z,14.88
2024-02-27T04:37:19.651Z,12.63
2024-02-27T04:40:21.708Z,10.70
2024-02-27T04:43:23.749Z,15.38
2024-02-27T04:46:26.010Z,11.98
2024-02-27T04:49:28.631Z,12.90
2024-02-27T04:52:30.748Z,11.93
2024-02-27T04:55:33.683Z,10.55
2024-02-27T04:58:39.452Z,11.38
2024-02-27T05:01:42.701Z,10.57
2024-02-27T05:04:45.001Z,14.68
2024-02-27T05:07:47.224Z,12.20
2024-02-27T05:10:50.159Z,11.70
2024-02-27T05:13:53.073Z,14.00
2024-02-27T05:16:55.685Z,12.48
2024-02-27T05:19:58.248Z,11.65
2024-02-27T05:23:01.941Z,15.23
2024-02-27T05:26:05.172Z,11.55
2024-02-27T05:29:07.084Z,10.20
2024-02-27T05:32:10.296Z,8.60
2024-02-27T05:35:13.622Z,10.77
2024-02-27T05:38:19.791Z,9.98
2024-02-27T05:41:22.611Z,10.93
2024-02-27T05:44:24.843Z,11.23
2024-02-27T05:47:29.842Z,11.20
2024-02-27T05:53:34.536Z,14.15
2024-02-27T05:56:36.855Z,13.68
2024-02-27T05:59:39.359Z,10.70
2024-02-27T06:02:41.584Z,13.60
2024-02-27T06:05:44.379Z,10.70
2024-02-27T06:08:47.505Z,13.27
2024-02-27T06:11:49.641Z,12.23
2024-02-27T06:14:52.166Z,15.50
2024-02-27T06:17:54.922Z,9.82
2024-02-27T06:21:16.606Z,9.10
2024-02-27T06:24:18.621Z,12.43
2024-02-27T06:27:23.575Z,13.48
2024-02-27T06:30:25.844Z,14.07
2024-02-27T06:33:28.394Z,32.92
2024-02-27T06:36:34.091Z,56.03
2024-02-27T06:39:37.575Z,11.50
2024-02-27T06:42:40.030Z,11.40
2024-02-27T06:45:42.617Z,14.23
2024-02-27T06:48:45.242Z,13.07
2024-02-27T06:51:49.228Z,12.68
2024-02-27T06:54:51.451Z,10.30
2024-02-27T06:57:53.600Z,14.35
2024-02-27T07:00:56.164Z,12.25
2024-02-27T07:04:00.501Z,17.30
2024-02-27T07:07:03.805Z,14.18
2024-02-27T07:10:06.176Z,19.33
2024-02-27T07:13:10.346Z,20.35
2024-02-27T07:16:12.973Z,11.48
2024-02-27T07:19:17.241Z,11.13
2024-02-27T07:22:23.567Z,10.07
2024-02-27T07:25:26.887Z,10.55
2024-02-27T07:28:33.484Z,8.23
2024-02-27T07:31:36.566Z,8.75
2024-02-27T07:34:39.663Z,8.90
2024-02-27T07:37:41.918Z,9.63
2024-02-27T07:40:48.756Z,10.30
2024-02-27T07:43:54.722Z,10.27
2024-02-27T07:46:57.074Z,8.73
2024-02-27T07:50:00.967Z,8.23
2024-02-27T07:53:03.343Z,9.98
2024-02-27T07:56:05.964Z,14.43
2024-02-27T07:59:09.845Z,9.90
2024-02-27T08:02:12.084Z,7.18
2024-02-27T08:05:14.297Z,20.77
2024-02-27T08:08:19.170Z,7.88
2024-02-27T08:11:23.889Z,6.28
2024-02-27T08:14:29.085Z,5.45
2024-02-27T08:17:31.234Z,5.55
2024-02-27T08:20:33.657Z,10.43
2024-02-27T08:23:37.171Z,6.88
2024-02-27T08:26:39.566Z,8.60
2024-02-27T08:29:41.639Z,7.15
2024-02-27T08:32:43.738Z,7.55
2024-02-27T08:35:45.827Z,16.60
2024-02-27T08:38:49.369Z,9.27
2024-02-27T08:41:52.140Z,7.28
2024-02-27T08:44:55.809Z,7.93
2024-02-27T08:47:58.625Z,7.43
2024-02-27T08:51:00.900Z,10.68
2024-02-27T08:54:03.830Z,8.55
2024-02-27T08:57:06.611Z,6.32
2024-02-27T09:00:12.766Z,6.15
2024-02-27T09:03:15.028Z,7.00
2024-02-27T09:06:18.959Z,7.32
2024-02-27T09:09:22.188Z,6.20
2024-02-27T09:12:25.337Z,7.43
2024-02-27T09:15:28.248Z,8.73
2024-02-27T09:18:31.360Z,7.72
2024-02-27T09:21:34.502Z,6.10
2024-02-27T09:24:37.025Z,10.05
2024-02-27T09:27:39.384Z,9.88
2024-02-27T09:30:41.629Z,10.77
2024-02-27T09:33:45.697Z,8.50
2024-02-27T09:36:48.211Z,7.97
2024-02-27T09:39:57.966Z,10.32
2024-02-27T09:43:02.999Z,5.45
2024-02-27T09:46:06.190Z,6.20
2024-02-27T09:49:11.100Z,5.50
2024-02-27T09:52:19.050Z,8.60
2024-02-27T09:55:23.240Z,6.35
2024-02-27T09:58:26.122Z,4.63
2024-02-27T10:01:34.418Z,6.32
2024-02-27T10:04:37.652Z,9.80
2024-02-27T10:07:40.734Z,5.85
2024-02-27T10:10:43.775Z,5.35
2024-02-27T10:13:46.447Z,7.32
2024-02-27T10:16:49.080Z,7.72
2024-02-27T10:19:52.472Z,5.68
2024-02-27T10:22:54.589Z,8.68
2024-02-27T10:26:09.012Z,4.90
2024-02-27T10:29:15.919Z,7.60
2024-02-27T10:32:20.113Z,5.78
2024-02-27T10:35:24.052Z,5.10
2024-02-27T10:38:28.466Z,8.38
2024-02-27T10:41:31.405Z,7.82
2024-02-27T10:44:33.598Z,9.27
2024-02-27T10:47:36.803Z,7.18
2024-02-27T10:50:39.458Z,6.47
2024-02-27T10:53:44.185Z,6.63
2024-02-27T10:56:49.460Z,4.78
2024-02-27T10:59:55.705Z,5.13
2024-02-27T11:02:58.520Z,5.22
2024-02-27T11:06:02.363Z,8.98
2024-02-27T11:09:08.793Z,8.57
2024-02-27T11:12:19.056Z,5.88
2024-02-27T11:15:22.149Z,4.43
2024-02-27T11:18:27.395Z,9.45
2024-02-27T11:21:30.702Z,5.35
2024-02-27T11:24:32.837Z,6.20
2024-02-27T11:27:37.806Z,4.70
2024-02-27T11:30:43.090Z,7.00
2024-02-27T11:33:54.601Z,5.93
2024-02-27T11:37:17.854Z,4.68
2024-02-27T11:40:44.534Z,5.72
2024-02-27T11:43:49.360Z,7.25
2024-02-27T11:46:55.724Z,6.57
2024-02-27T11:49:58.626Z,4.55
2024-02-27T11:53:00.697Z,6.15
2024-02-27T11:56:03.268Z,5.43
2024-02-27T11:59:05.986Z,6.25
2024-02-27T12:02:08.622Z,7.05
2024-02-27T12:05:11.492Z,5.57
2024-02-27T12:08:16.085Z,11.63
2024-02-27T12:14:28.253Z,6.38
2024-02-27T12:17:30.692Z,5.82
2024-02-27T12:20:33.248Z,6.97
2024-02-27T12:23:37.699Z,6.32
2024-02-27T12:26:40.795Z,7.25
2024-02-27T12:29:43.293Z,6.03
2024-02-27T12:32:46.207Z,8.00
2024-02-27T12:35:49.350Z,9.10
2024-02-27T12:38:52.513Z,8.95
2024-02-27T12:41:54.783Z,12.00
2024-02-27T12:44:56.881Z,5.47
2024-02-27T12:47:59.232Z,8.07
2024-02-27T12:51:03.042Z,8.50
2024-02-27T12:54:08.276Z,10.57
2024-02-27T12:57:11.186Z,8.52
2024-02-27T13:00:13.960Z,6.90
2024-02-27T13:03:18.633Z,6.85
2024-02-27T13:06:23.507Z,6.07
2024-02-27T13:09:28.845Z,8.10
2024-02-27T13:12:31.450Z,7.38
2024-02-27T13:15:33.938Z,9.40
2024-02-27T13:18:37.727Z,7.78
2024-02-27T13:21:42.020Z,8.43
2024-02-27T13:24:45.752Z,10.70
2024-02-27T13:27:48.789Z,7.45
2024-02-27T13:30:50.868Z,7.03
2024-02-27T13:33:53.523Z,10.00
2024-02-27T13:36:55.676Z,9.05
2024-02-27T13:39:57.743Z,15.40
2024-02-27T13:43:01.325Z,11.52
2024-02-27T13:46:03.688Z,8.98
2024-02-27T13:49:08.484Z,8.60
2024-02-27T13:52:12.037Z,8.73
2024-02-27T13:55:14.453Z,10.90
2024-02-27T13:58:19.827Z,7.38
2024-02-27T14:01:22.251Z,9.43
2024-02-27T14:04:27.963Z,8.85
2024-02-27T14:07:32.306Z,8.68
2024-02-27T14:10:35.024Z,7.03
2024-02-27T14:13:39.930Z,6.85
2024-02-27T14:16:43.948Z,10.00
2024-02-27T14:19:45.969Z,11.18
2024-02-27T14:22:48.687Z,10.63
2024-02-27T14:25:52.255Z,12.65
2024-02-27T14:28:54.764Z,8.13
2024-02-27T14:31:57.825Z,5.93
2024-02-27T14:35:00.879Z,14.35
2024-02-27T14:38:03.481Z,11.38
2024-02-27T14:41:05.491Z,13.27
2024-02-27T14:44:09.508Z,7.63
2024-02-27T14:47:11.924Z,8.68
2024-02-27T14:50:16.480Z,7.00
2024-02-27T14:53:18.569Z,17.00
2024-02-27T14:56:20.759Z,12.63
2024-02-27T14:59:24.744Z,13.50
2024-02-27T15:02:27.878Z,9.05
2024-02-27T15:05:31.239Z,13.73
2024-02-27T15:08:33.585Z,25.85
2024-02-27T15:11:35.848Z,23.05
2024-02-27T15:14:37.880Z,22.17
2024-02-27T15:17:40.194Z,21.23
2024-02-27T15:20:42.759Z,22.48
2024-02-27T15:23:45.139Z,27.88
2024-02-27T15:26:47.555Z,33.90
2024-02-27T15:29:49.621Z,28.40
2024-02-27T15:32:51.738Z,14.82
2024-02-27T15:35:53.969Z,14.57
2024-02-27T15:38:56.316Z,10.15
2024-02-27T15:41:58.550Z,12.63
2024-02-27T15:45:00.601Z,10.18
2024-02-27T15:48:02.780Z,11.52
2024-02-27T15:51:09.538Z,11.85
2024-02-27T15:54:13.895Z,14.43
2024-02-27T15:57:16.336Z,11.57
2024-02-27T16:00:20.630Z,14.45
2024-02-27T16:03:31.220Z,11.75
2024-02-27T16:06:48.624Z,9.98
2024-02-27T16:09:51.398Z,12.50
2024-02-27T16:12:53.612Z,12.93
2024-02-27T16:15:55.764Z,9.80
2024-02-27T16:19:00.532Z,12.65
2024-02-27T16:22:09.477Z,7.57
2024-02-27T16:25:11.739Z,10.45
2024-02-27T16:28:14.596Z,10.27
2024-02-27T16:31:17.694Z,10.98
2024-02-27T16:34:20.989Z,15.18
2024-02-27T16:37:24.315Z,11.43
2024-02-27T16:40:27.757Z,8.00
2024-02-27T16:43:31.158Z,7.22
2024-02-27T16:46:35.724Z,9.40
2024-02-27T16:49:38.979Z,8.82
2024-02-27T16:52:41.348Z,7.53
2024-02-27T16:55:43.689Z,6.80
2024-02-27T16:58:47.748Z,10.00
2024-02-27T17:01:50.454Z,14.57
2024-02-27T17:04:53.242Z,12.75
2024-02-27T17:07:55.605Z,15.40
2024-02-27T17:10:59.671Z,9.02
2024-02-27T17:14:02.533Z,10.20
2024-02-27T17:17:05.100Z,11.60
2024-02-27T17:20:07.979Z,10.77
2024-02-27T17:23:17.209Z,11.05
2024-02-27T17:26:21.431Z,9.60
2024-02-27T17:29:23.567Z,9.65
2024-02-27T17:32:26.828Z,10.32
2024-02-27T17:35:29.229Z,12.32
2024-02-27T17:38:31.385Z,10.05
2024-02-27T17:41:34.115Z,10.75
2024-02-27T17:44:37.151Z,11.88
2024-02-27T17:47:39.889Z,10.85
2024-02-27T17:50:43.187Z,9.27
2024-02-27T17:53:45.663Z,8.98
2024-02-27T17:56:50.542Z,8.20
2024-02-27T17:59:55.046Z,10.02
2024-02-27T18:02:59.586Z,9.35
2024-02-27T18:06:08.811Z,9.00
2024-02-27T18:09:12.705Z,7.97
2024-02-27T18:12:15.645Z,7.07
2024-02-27T18:15:18.754Z,6.18
2024-02-27T18:18:22.267Z,7.75
2024-02-27T18:24:31.412Z,11.60
2024-02-27T18:27:33.643Z,8.40
2024-02-27T18:30:36.107Z,6.85
2024-02-27T18:33:39.086Z,9.30
2024-02-27T18:36:41.486Z,9.82
2024-02-27T18:39:45.434Z,6.53
2024-02-27T18:42:53.448Z,6.93
2024-02-27T18:45:56.938Z,8.60
2024-02-27T18:48:59.683Z,9.95
2024-02-27T18:52:01.857Z,6.63
2024-02-27T18:55:04.226Z,6.43
2024-02-27T18:58:10.007Z,8.50
2024-02-27T19:01:12.282Z,8.32
2024-02-27T19:04:14.962Z,11.65
2024-02-27T19:07:18.481Z,10.27
2024-02-27T19:10:22.122Z,7.72
2024-02-27T19:13:26.780Z,7.00
2024-02-27T19:16:29.589Z,8.13
2024-02-27T19:19:32.215Z,11.18
2024-02-27T19:22:34.362Z,11.07
2024-02-27T19:25:37.495Z,9.23
2024-02-27T19:28:42.054Z,10.60
2024-02-27T19:31:44.264Z,9.05
2024-02-27T19:34:49.341Z,7.30
2024-02-27T19:37:55.167Z,7.57
2024-02-27T19:40:59.404Z,11.05
2024-02-27T19:44:02.421Z,10.35
2024-02-27T19:47:07.259Z,8.98
2024-02-27T19:50:15.003Z,9.02
2024-02-27T19:53:18.042Z,13.98
2024-02-27T19:56:20.638Z,9.15
2024-02-27T19:59:28.346Z,9.27
2024-02-27T20:02:30.561Z,9.38
2024-02-27T20:05:33.899Z,14.20
2024-02-27T20:08:36.739Z,10.35
2024-02-27T20:11:40.646Z,16.50
2024-02-27T20:14:43.658Z,10.23
2024-02-27T20:17:47.170Z,10.68
2024-02-27T20:20:49.685Z,12.57
2024-02-27T20:23:52.679Z,11.25
2024-02-27T20:26:57.710Z,14.02
2024-02-27T20:30:00.457Z,15.23
2024-02-27T20:33:04.249Z,11.63
2024-02-27T20:36:06.894Z,13.02
2024-02-27T20:39:09.481Z,8.98
2024-02-27T20:42:11.532Z,9.60
2024-02-27T20:45:14.246Z,9.77
2024-02-27T20:48:17.234Z,11.88
2024-02-27T20:51:20.459Z,14.52
2024-02-27T20:54:22.664Z,10.18
2024-02-27T20:57:25.154Z,15.40
2024-02-27T21:00:27.356Z,12.40
2024-02-27T21:03:30.870Z,16.90
2024-02-27T21:06:33.573Z,13.52
2024-02-27T21:09:36.685Z,13.00
2024-02-27T21:12:41.515Z,12.63
2024-02-27T21:15:44.736Z,17.52
2024-02-27T21:18:48.512Z,17.40
2024-02-27T21:21:50.681Z,13.98
2024-02-27T21:24:56.449Z,13.93
2024-02-27T21:27:59.691Z,15.88
2024-02-27T21:31:02.261Z,17.35
2024-02-27T21:34:05.194Z,15.48
2024-02-27T21:37:12.405Z,16.77
2024-02-27T21:40:16.128Z,16.50
2024-02-27T21:43:18.769Z,16.60
2024-02-27T21:46:20.967Z,14.10
2024-02-27T21:49:23.938Z,15.57
2024-02-27T21:52:26.468Z,15.00
2024-02-27T21:55:28.611Z,14.32
2024-02-27T21:58:30.727Z,14.70
2024-02-27T22:01:35.040Z,21.02
2024-02-27T22:04:37.241Z,20.05
2024-02-27T22:07:39.780Z,15.55
2024-02-27T22:10:42.503Z,17.45
2024-02-27T22:13:44.501Z,16.90
2024-02-27T22:16:50.696Z,16.85
2024-02-27T22:19:53.309Z,16.50
2024-02-27T22:22:55.845Z,16.98
2024-02-27T22:25:58.436Z,22.27
2024-02-27T22:29:00.972Z,16.02
2024-02-27T22:32:04.427Z,21.92
2024-02-27T22:35:07.255Z,21.45
2024-02-27T22:38:10.573Z,18.42
2024-02-27T22:41:12.677Z,18.65
2024-02-27T22:44:15.746Z,17.27
2024-02-27T22:47:17.902Z,21.00
2024-02-27T22:50:20.140Z,19.40
2024-02-27T22:53:22.163Z,21.33
2024-02-27T22:56:25.037Z,19.70
2024-02-27T22:59:28.837Z,16.55
2024-02-27T23:02:30.796Z,18.52
2024-02-27T23:05:32.824Z,16.30
2024-02-27T23:08:34.963Z,15.93
2024-02-27T23:11:37.392Z,22.85
2024-02-27T23:14:39.823Z,17.02
2024-02-27T23:17:42.746Z,19.33
2024-02-27T23:20:47.369Z,17.00
2024-02-27T23:23:49.545Z,16.20
2024-02-27T23:26:51.661Z,16.50
2024-02-27T23:29:54.962Z,16.10
2024-02-27T23:32:58.997Z,16.60
2024-02-27T23:36:01.370Z,16.90
2024-02-27T23:39:05.224Z,26.45
2024-02-27T23:42:15.008Z,16.42
2024-02-27T23:45:34.968Z,18.55
2024-02-27T23:48:37.387Z,14.75
2024-02-27T23:51:41.235Z,18.65
2024-02-27T23:54:45.189Z,18.23
2024-02-27T23:57:49.439Z,20.25
